Time;durP1;ratioP1;P1;durP2;ratioP2;P2;SDS_P1;SDS_P2;PMS_P1;PMS_P2;Temp;Humidity;BMP_temperature;BMP_pressure;BME280_temperature;BME280_humidity;BME280_pressure;Samples;Min_cycle;Max_cycle;Signal;HPM_P1;HPM_P2
2023/08/19 00:03:05;;;;;;;5.68;4.65;;;;;;;-144.30;49.44;83939.59;5061463;28;20287;-56
2023/08/19 00:09:31;;;;;;;5.05;4.65;;;;;;;-144.30;49.29;83961.44;5060630;28;20195;-56
2023/08/19 00:12:35;;;;;;;4.38;4.07;;;;;;;-144.30;49.19;83957.47;5058141;28;20207;-57
2023/08/19 00:22:26;;;;;;;5.13;4.60;;;;;;;-144.30;49.58;83973.38;5061048;28;20282;-45
2023/08/19 00:25:53;;;;;;;8.23;4.95;;;;;;;-144.30;49.65;84027.00;5059969;28;20188;-44
2023/08/19 00:31:39;;;;;;;5.38;4.88;;;;;;;-144.30;49.97;84036.94;5059038;28;20577;-45
2023/08/19 00:37:12;;;;;;;4.95;4.50;;;;;;;-144.30;49.92;84029.00;5100843;28;20659;-57
2023/08/19 00:40:25;;;;;;;;;;;;;;;;;;;;;
2023/08/19 00:43:09;;;;;;;8.75;4.20;;;;;;;-144.30;49.99;84050.84;5099580;28;20195;-56
2023/08/19 00:52:27;;;;;;;5.78;4.25;;;;;;;-144.30;49.97;84032.97;5097263;28;20615;-45
2023/08/19 01:02:02;;;;;;;5.22;4.68;;;;;;;-144.30;50.74;84080.66;5097930;28;20198;-44
2023/08/19 01:04:50;;;;;;;4.75;4.40;;;;;;;-144.30;50.88;84036.94;5098124;28;20278;-47
2023/08/19 01:11:07;;;;;;;5.20;4.70;;;;;;;-144.30;50.99;84046.88;5094267;28;20191;-57
2023/08/19 01:14:18;;;;;;;5.03;4.60;;;;;;;-144.30;50.94;84062.78;5100001;28;20195;-46
2023/08/19 01:23:41;;;;;;;6.95;4.90;;;;;;;-144.30;51.05;84080.66;5098809;28;20194;-57
2023/08/19 01:29:44;;;;;;;4.93;4.53;;;;;;;-144.30;50.92;84084.66;5095673;28;20195;-46
2023/08/19 01:35:44;;;;;;;4.80;4.40;;;;;;;-144.30;51.32;84078.69;5097072;28;20215;-56
2023/08/19 01:41:51;;;;;;;4.70;4.40;;;;;;;-144.30;51.37;84102.53;5096143;28;20199;-56
2023/08/19 01:50:54;;;;;;;7.03;6.38;;;;;;;-144.30;54.88;84162.16;5098384;28;20273;-56
2023/08/19 01:56:56;;;;;;;6.55;5.95;;;;;;;-144.30;55.97;84209.84;5098069;28;20191;-44
2023/08/19 01:59:54;;;;;;;8.95;5.93;;;;;;;-144.30;56.42;84255.53;5097047;28;20191;-56
2023/08/19 02:05:51;;;;;;;7.28;6.43;;;;;;;-144.30;57.00;84265.47;5095043;28;20674;-56
2023/08/19 02:08:50;;;;;;;7.55;6.85;;;;;;;-144.30;57.03;84247.59;5100010;28;20622;-56
2023/08/19 02:11:57;;;;;;;9.07;6.25;;;;;;;-144.30;57.56;84311.19;5098567;28;20228;-55
2023/08/19 02:14:52;;;;;;;9.30;5.80;;;;;;;-144.30;57.99;84279.38;5098126;28;20242;-56
2023/08/19 02:20:45;;;;;;;11.65;6.97;;;;;;;-144.30;59.44;84335.03;5098120;28;20191;-44
2023/08/19 02:23:42;;;;;;;11.10;7.82;;;;;;;-144.30;59.65;84342.97;5100234;28;20191;-57
2023/08/19 02:27:03;;;;;;;;;;;;;;;;;;;;;
2023/08/19 02:29:50;;;;;;;9.15;7.15;;;;;;;-144.30;59.58;84305.22;5101988;28;20195;-56
2023/08/19 02:32:35;;;;;;;8.50;7.20;;;;;;;-144.30;59.61;84350.94;5102281;28;20191;-55
2023/08/19 02:41:43;;;;;;;9.40;6.50;;;;;;;-144.30;60.20;84331.06;5103804;28;20588;-56
2023/08/19 02:44:11;;;;;;;9.52;6.75;;;;;;;-144.30;60.29;84350.94;5112878;28;20613;-56
2023/08/19 02:47:13;;;;;;;9.18;6.40;;;;;;;-144.30;60.70;84388.69;5102548;28;20195;-56
2023/08/19 02:52:54;;;;;;;7.82;6.75;;;;;;;-144.30;60.29;84364.84;5091274;28;20257;-55
2023/08/19 02:55:54;;;;;;;;;;;;;;;;;;;;;
2023/08/19 02:58:45;;;;;;;8.77;6.10;;;;;;;-144.30;60.62;84344.97;5085586;28;20203;-56
2023/08/19 03:04:23;;;;;;;7.13;6.55;;;;;;;-144.30;60.61;84342.97;5092027;28;20702;-57
2023/08/19 03:06:54;;;;;;;13.38;7.80;;;;;;;-144.30;61.03;84382.72;5103334;28;20722;-45
2023/08/19 03:09:36;;;;;;;12.63;7.78;;;;;;;-144.30;61.61;84390.69;5097773;28;20202;-55
2023/08/19 03:12:07;;;;;;;8.20;7.32;;;;;;;-144.30;62.10;84374.78;5099853;28;20656;-56
2023/08/19 03:14:41;;;;;;;8.85;6.85;;;;;;;-144.30;62.70;84358.88;5101357;28;20762;-57
2023/08/19 03:17:14;;;;;;;8.00;6.53;;;;;;;-144.30;62.51;84354.91;5100160;28;20687;-56
2023/08/19 03:19:43;;;;;;;8.52;6.38;;;;;;;-144.30;62.39;84434.41;5100040;28;20300;-46
2023/08/19 03:22:28;;;;;;;10.88;6.63;;;;;;;-144.30;62.54;84392.66;5103326;28;20194;-45
2023/08/19 03:25:21;;;;;;;10.20;6.97;;;;;;;-144.30;63.29;84394.66;5099934;28;20293;-45
2023/08/19 03:28:23;;;;;;;10.98;7.03;;;;;;;-144.30;63.04;84388.69;5102460;28;20250;-44
2023/08/19 03:34:16;;;;;;;8.13;7.15;;;;;;;-144.30;61.95;84432.41;5097163;28;20238;-56
2023/08/19 03:40:07;;;;;;;9.07;7.25;;;;;;;-144.30;62.15;84406.59;5094382;28;20205;-56
2023/08/19 03:42:37;;;;;;;8.07;7.00;;;;;;;-144.30;62.00;84444.34;5100831;28;20213;-56
2023/08/19 03:45:13;;;;;;;7.47;6.82;;;;;;;-144.30;62.03;84412.53;5100201;28;20194;-45
2023/08/19 03:47:46;;;;;;;7.22;6.63;;;;;;;-144.30;61.97;84418.50;5105012;28;20194;-44
2023/08/19 03:50:33;;;;;;;8.40;6.50;;;;;;;-144.30;62.17;84428.44;5100356;28;20197;-56
2023/08/19 03:53:30;;;;;;;8.38;7.15;;;;;;;-144.30;62.16;84436.38;5092981;28;20199;-45
2023/08/19 03:56:01;;;;;;;9.18;7.35;;;;;;;-144.30;62.32;84434.41;5090149;28;20620;-45
2023/08/19 03:58:31;;;;;;;12.35;7.05;;;;;;;-144.30;62.25;84424.47;5102677;28;20205;-45
2023/08/19 04:01:13;;;;;;;15.38;7.15;;;;;;;-144.30;62.52;84376.78;5100886;28;20587;-45
2023/08/19 04:03:57;;;;;;;17.67;7.32;;;;;;;-144.30;62.93;84444.34;5094470;28;20239;-45
2023/08/19 04:06:29;;;;;;;9.10;7.20;;;;;;;-144.30;63.08;84466.19;5090841;28;20226;-45
2023/08/19 04:09:11;;;;;;;7.90;7.25;;;;;;;-144.30;63.02;84430.44;5108706;28;20203;-46
2023/08/19 04:11:54;;;;;;;8.82;7.78;;;;;;;-144.30;63.29;84438.38;5111056;28;20201;-57
2023/08/19 04:14:38;;;;;;;13.60;8.20;;;;;;;-144.30;62.99;84430.44;5099498;28;20196;-45
2023/08/19 04:17:28;;;;;;;13.50;8.45;;;;;;;-144.30;63.09;84436.38;5095649;28;20306;-46
2023/08/19 04:20:15;;;;;;;9.48;8.07;;;;;;;-144.30;62.71;84402.59;5107897;28;20199;-55
2023/08/19 04:23:29;;;;;;;;;;;;;;;;;;;;;
2023/08/19 04:26:09;;;;;;;7.53;6.78;;;;;;;-144.30;60.48;84752.41;5102998;28;20650;-56
2023/08/19 04:28:48;;;;;;;10.43;7.60;;;;;;;-144.30;59.78;84378.75;5100375;28;20195;-56
2023/08/19 04:31:19;;;;;;;8.60;7.70;;;;;;;-144.30;59.38;84356.91;5099978;28;20251;-56
2023/08/19 04:34:01;;;;;;;8.35;7.60;;;;;;;-144.30;58.82;84376.78;5098291;28;20218;-45
2023/08/19 04:36:42;;;;;;;16.10;9.00;;;;;;;-144.30;58.77;84362.84;5098764;28;20221;-57
2023/08/19 04:39:27;;;;;;;8.73;7.82;;;;;;;-144.30;58.66;84414.53;5098201;28;20762;-55
2023/08/19 04:42:08;;;;;;;9.23;7.97;;;;;;;-144.30;59.20;84356.91;5097952;28;20205;-45
2023/08/19 04:44:43;;;;;;;14.20;8.35;;;;;;;-144.30;59.39;84342.97;5100534;28;20199;-56
2023/08/19 04:47:38;;;;;;;12.48;8.70;;;;;;;-144.30;59.20;84368.81;5096418;28;20198;-56
2023/08/19 04:53:27;;;;;;;15.05;10.05;;;;;;;-144.30;59.26;84356.91;5109243;28;20206;-56
2023/08/19 04:56:22;;;;;;;11.50;10.27;;;;;;;-144.30;59.13;84362.84;5110512;28;20234;-45
2023/08/19 04:59:04;;;;;;;23.90;11.75;;;;;;;-144.30;59.28;84303.25;5107199;28;20236;-56
2023/08/19 05:02:03;;;;;;;20.70;14.50;;;;;;;-144.30;57.92;84215.78;5098867;28;20214;-56
2023/08/19 05:04:54;;;;;;;25.42;18.27;;;;;;;-144.30;54.61;84134.31;5109682;28;20251;-54
2023/08/19 05:10:47;;;;;;;45.00;30.65;;;;;;;-144.30;53.69;84102.53;5110303;28;20249;-57
2023/08/19 05:13:33;;;;;;;51.00;33.75;;;;;;;-144.30;53.72;84068.75;5109489;28;20191;-57
2023/08/19 05:16:07;;;;;;;58.50;36.83;;;;;;;-144.30;54.53;84172.06;5098264;28;20279;-56
2023/08/19 05:18:40;;;;;;;52.17;37.42;;;;;;;-144.30;54.23;84048.88;5093739;28;20198;-56
2023/08/19 05:21:24;;;;;;;65.25;39.10;;;;;;;-144.30;51.82;83901.81;5108789;28;20205;-44
2023/08/19 05:24:00;;;;;;;59.17;42.28;;;;;;;-144.30;48.89;83695.19;5105254;28;20286;-55
2023/08/19 05:26:33;;;;;;;59.85;38.25;;;;;;;-144.30;47.27;83611.72;5097145;28;20255;-45
2023/08/19 05:29:01;;;;;;;55.20;34.97;;;;;;;-144.30;45.44;83440.84;5088894;28;20203;-46
2023/08/19 05:31:46;;;;;;;52.67;35.00;;;;;;;-144.30;42.25;83200.47;5096668;28;20195;-56
2023/08/19 05:34:34;;;;;;;53.35;35.40;;;;;;;-144.30;39.98;83019.69;5089296;28;20253;-45
2023/08/19 05:37:06;;;;;;;44.47;31.42;;;;;;;-144.30;40.14;83047.50;5095209;28;20250;-46
2023/08/19 05:39:35;;;;;;;33.35;25.02;;;;;;;-144.30;42.01;83270.00;5102171;28;20198;-46
2023/08/19 05:42:04;;;;;;;32.63;23.45;;;;;;;-144.30;44.35;83468.66;5097390;28;20195;-45
2023/08/19 05:44:45;;;;;;;32.40;21.77;;;;;;;-144.30;46.57;83657.41;5103451;28;20281;-56
2023/08/19 05:47:18;;;;;;;31.60;19.35;;;;;;;-144.30;48.61;83806.44;5103051;28;20194;-45
2023/08/19 05:49:51;;;;;;;48.17;24.05;;;;;;;-144.30;49.87;83834.25;5101207;28;20202;-45
2023/08/19 05:52:55;;;;;;;27.40;18.13;;;;;;;-144.30;50.94;83937.59;5089415;28;20203;-57
2023/08/19 05:55:26;;;;;;;21.95;16.10;;;;;;;-144.30;51.08;83915.75;5091922;28;20723;-59
2023/08/19 05:58:07;;;;;;;25.88;14.10;;;;;;;-144.30;50.48;83885.94;5091704;28;20194;-45
2023/08/19 06:00:54;;;;;;;21.90;13.32;;;;;;;-144.30;49.79;83726.97;5091942;28;20206;-46
2023/08/19 06:04:02;;;;;;;27.98;14.90;;;;;;;-144.30;46.80;83536.22;5090217;28;20203;-46
2023/08/19 06:09:38;;;;;;;25.75;13.18;;;;;;;-144.30;45.51;83611.72;5091491;28;20597;-55
2023/08/19 06:12:24;;;;;;;30.33;17.73;;;;;;;-144.30;46.41;83641.53;5093116;28;20201;-47
2023/08/19 06:15:12;;;;;;;28.25;11.50;;;;;;;-144.30;46.58;83601.78;5088384;28;20341;-47
2023/08/19 06:17:43;;;;;;;16.67;10.88;;;;;;;-144.30;44.79;83500.47;5092635;28;20203;-46
2023/08/19 06:20:41;;;;;;;22.83;10.77;;;;;;;-144.30;42.92;83246.16;5092692;28;20680;-57
2023/08/19 06:23:10;;;;;;;21.10;13.38;;;;;;;-144.30;41.30;83134.91;5092105;28;20195;-55
2023/08/19 06:25:48;;;;;;;18.27;10.70;;;;;;;-144.30;41.09;83138.88;5095298;28;20214;-57
2023/08/19 06:28:23;;;;;;;16.80;11.05;;;;;;;-144.30;41.19;83126.94;5103329;28;20195;-56
2023/08/19 06:30:55;;;;;;;13.98;8.40;;;;;;;-144.30;40.90;83079.28;5092682;28;20198;-56
2023/08/19 06:33:30;;;;;;;14.43;9.05;;;;;;;-144.30;39.53;82896.50;5094897;28;20222;-56
2023/08/19 06:36:12;;;;;;;19.75;9.40;;;;;;;-144.30;37.59;82648.22;5101743;28;20219;-56
2023/08/19 06:39:07;;;;;;;14.60;9.23;;;;;;;-144.30;36.22;82548.88;5100482;28;20201;-46
2023/08/19 06:41:46;;;;;;;14.48;9.70;;;;;;;-144.30;37.27;82699.84;5100621;28;20190;-46
2023/08/19 06:44:23;;;;;;;9.93;8.30;;;;;;;-144.30;38.08;82866.72;5103029;28;20692;-56
2023/08/19 06:50:30;;;;;;;14.80;7.97;;;;;;;-144.30;40.54;83144.84;5112584;28;20195;-45
2023/08/19 06:56:46;;;;;;;12.70;7.38;;;;;;;-144.30;39.49;82765.41;5112069;28;20218;-57
2023/08/19 06:59:47;;;;;;;11.10;7.97;;;;;;;-144.30;36.67;82276.78;5112308;28;20198;-45
2023/08/19 07:05:22;;;;;;;14.77;7.88;;;;;;;-144.30;36.48;82431.69;5101280;28;20195;-56
2023/08/19 07:14:27;;;;;;;17.90;7.97;;;;;;;-144.30;38.73;82614.44;5091385;28;20671;-57
2023/08/19 07:20:13;;;;;;;8.10;7.30;;;;;;;-144.30;34.08;82098.03;5091193;28;20195;-45
2023/08/19 07:23:08;;;;;;;10.88;7.20;;;;;;;-144.30;33.47;81899.44;5102430;28;20203;-45
2023/08/19 07:26:13;;;;;;;15.63;6.82;;;;;;;-144.30;33.79;81738.56;5110878;28;20198;-46
2023/08/19 07:28:47;;;;;;;11.55;7.38;;;;;;;-144.30;31.15;81478.44;5100818;28;20217;-57
2023/08/19 07:31:45;;;;;;;8.65;7.70;;;;;;;-144.30;30.68;81305.69;5111107;28;20190;-46
2023/08/19 07:34:53;;;;;;;;;;;;;;;;;;;;;
2023/08/19 07:40:51;;;;;;;11.20;6.30;;;;;;;-144.30;30.67;81442.69;5109023;28;20204;-56
2023/08/19 07:44:05;;;;;;;8.52;6.63;;;;;;;-144.30;30.25;81309.66;5110462;28;20242;-56
2023/08/19 07:46:46;;;;;;;16.88;6.82;;;;;;;-144.30;30.60;81494.31;5111640;28;20239;-56
2023/08/19 07:49:36;;;;;;;8.10;5.43;;;;;;;-144.30;30.60;81512.19;5110091;28;20197;-47
2023/08/19 07:58:12;;;;;;;6.75;6.15;;;;;;;-144.30;28.37;80964.19;5106768;28;20189;-56
2023/08/19 08:01:35;;;;;;;6.60;5.90;;;;;;;-144.30;27.88;80882.78;5110926;28;20204;-56
2023/08/19 08:04:53;;;;;;;11.05;7.25;;;;;;;-144.30;28.12;80904.63;5110748;28;20186;-47
2023/08/19 08:20:29;;;;;;;6.65;6.07;;;;;;;-144.30;32.01;82096.03;5127050;28;20225;-56
2023/08/19 08:23:33;;;;;;;19.35;6.43;;;;;;;-144.30;32.68;82278.75;5126668;28;20305;-45
2023/08/19 08:26:44;;;;;;;6.55;5.95;;;;;;;-144.30;33.60;82457.53;5126752;28;20239;-55
2023/08/19 08:29:37;;;;;;;8.77;6.22;;;;;;;-144.30;34.53;82570.75;5125572;28;20325;-56
2023/08/19 08:32:08;;;;;;;8.07;5.82;;;;;;;-144.30;34.69;82610.47;5125892;28;20300;-46
2023/08/19 08:38:20;;;;;;;7.35;6.25;;;;;;;-144.30;35.58;82713.75;5127123;28;20576;-54
2023/08/19 08:41:24;;;;;;;7.43;6.05;;;;;;;-144.30;36.41;82805.13;5125175;28;20190;-57
2023/08/19 08:47:49;;;;;;;14.32;6.43;;;;;;;-144.30;37.32;82900.47;5126792;28;20229;-45
2023/08/19 08:50:48;;;;;;;16.73;7.40;;;;;;;-144.30;37.18;82912.41;5117580;28;20590;-56
2023/08/19 08:57:01;;;;;;;12.80;7.28;;;;;;;-144.30;37.29;82844.88;5124814;28;20595;-47
2023/08/19 08:59:58;;;;;;;14.60;6.03;;;;;;;-144.30;36.75;82821.03;5126295;28;20197;-44
2023/08/19 09:03:23;;;;;;;14.00;6.22;;;;;;;-144.30;36.53;82801.16;5124894;28;20235;-46
2023/08/19 09:09:49;;;;;;;;;;;;;;;;;;;;;
2023/08/19 09:22:28;;;;;;;8.60;6.45;;;;;;;-144.30;29.54;81764.38;5107974;28;20234;-55
2023/08/19 09:25:47;;;;;;;5.88;5.32;;;;;;;-144.30;29.04;81565.81;5108202;28;20195;-56
2023/08/19 09:34:49;;;;;;;6.68;4.35;;;;;;;-144.30;27.42;81283.84;5108849;28;20201;-55
2023/08/19 09:37:58;;;;;;;7.97;4.78;;;;;;;-144.30;27.46;81117.06;5111570;28;20194;-46
2023/08/19 09:44:25;;;;;;;4.32;4.00;;;;;;;-144.30;26.30;80864.91;5111832;28;20206;-55
2023/08/19 09:49:54;;;;;;;4.22;3.97;;;;;;;-144.30;26.56;80807.34;5109384;28;20234;-45
2023/08/19 09:52:31;;;;;;;4.38;4.07;;;;;;;-144.30;26.07;80723.97;5111250;28;20689;-46
2023/08/19 09:55:23;;;;;;;4.53;4.10;;;;;;;-144.30;25.51;80596.91;5111335;28;20193;-46
2023/08/19 09:58:17;;;;;;;7.22;4.53;;;;;;;-144.30;25.71;80519.50;5111274;28;20201;-47
2023/08/19 10:04:18;;;;;;;6.97;4.63;;;;;;;-144.30;25.20;80406.34;5111398;28;20194;-56
2023/08/19 10:07:05;;;;;;;8.27;5.10;;;;;;;-144.30;25.09;80402.38;5109741;28;20233;-55
2023/08/19 10:10:04;;;;;;;5.20;4.80;;;;;;;-144.30;25.20;80334.88;5110387;28;20230;-45
2023/08/19 10:13:07;;;;;;;4.97;4.50;;;;;;;-144.30;25.11;80235.63;5110130;28;20689;-46
2023/08/19 10:16:06;;;;;;;4.53;4.15;;;;;;;-144.30;24.87;80267.38;5109370;28;20194;-55
2023/08/19 10:18:48;;;;;;;6.47;4.53;;;;;;;-144.30;25.14;80346.78;5107582;28;20233;-55
2023/08/19 10:21:19;;;;;;;6.03;4.40;;;;;;;-144.30;25.27;80354.72;5110669;28;20194;-54
2023/08/19 10:24:04;;;;;;;7.68;4.70;;;;;;;-144.30;25.66;80676.31;5111043;28;20251;-45
2023/08/19 10:26:35;;;;;;;6.60;4.57;;;;;;;-144.30;26.83;81069.41;5108751;28;20198;-44
2023/08/19 10:29:07;;;;;;;5.55;4.63;;;;;;;-144.30;27.61;81446.66;5110464;28;20186;-56
2023/08/19 10:32:01;;;;;;;8.18;4.63;;;;;;;-144.30;27.86;81639.28;5110311;28;20281;-45
2023/08/19 10:34:53;;;;;;;6.10;4.25;;;;;;;-144.30;28.85;81986.81;5109335;28;20198;-44
2023/08/19 10:37:31;;;;;;;4.43;3.92;;;;;;;-144.30;29.42;82121.88;5107671;28;20210;-45
2023/08/19 10:40:16;;;;;;;6.45;4.72;;;;;;;-144.30;29.82;82199.31;5107578;28;20205;-45
2023/08/19 10:42:56;;;;;;;5.18;4.72;;;;;;;-144.30;30.28;82558.81;5108182;28;20195;-45
2023/08/19 10:45:38;;;;;;;4.72;4.35;;;;;;;-144.30;30.42;82260.88;5108126;28;20191;-54
2023/08/19 10:48:11;;;;;;;8.48;5.05;;;;;;;-144.30;30.21;82332.38;5107458;28;20230;-44
2023/08/19 10:50:45;;;;;;;5.22;4.82;;;;;;;-144.30;30.74;82384.03;5109946;28;20221;-45
2023/08/19 10:53:29;;;;;;;5.05;4.65;;;;;;;-144.30;30.77;82431.69;5107232;28;20194;-45
2023/08/19 10:55:57;;;;;;;5.68;4.68;;;;;;;-144.30;30.96;82443.63;5106159;28;20255;-55
2023/08/19 10:58:26;;;;;;;5.30;4.75;;;;;;;-144.30;31.10;82399.91;5110203;28;20190;-46
2023/08/19 11:01:11;;;;;;;9.30;5.68;;;;;;;-144.30;30.73;82437.66;5109698;28;20197;-55
2023/08/19 11:03:51;;;;;;;4.45;4.25;;;;;;;-144.30;30.98;82413.81;5108658;28;20190;-55
2023/08/19 11:06:31;;;;;;;4.53;4.20;;;;;;;-144.30;30.95;82368.13;5101966;28;20207;-45
2023/08/19 11:09:03;;;;;;;5.57;5.18;;;;;;;-144.30;31.10;82435.66;5105798;28;20281;-46
2023/08/19 11:11:35;;;;;;;5.68;4.80;;;;;;;-144.30;31.05;82407.88;5109786;28;20218;-56
2023/08/19 11:14:25;;;;;;;7.35;5.43;;;;;;;-144.30;31.37;82471.44;5107104;28;20630;-56
2023/08/19 11:16:59;;;;;;;4.68;4.25;;;;;;;-144.30;31.40;82451.56;5106659;28;20689;-44
2023/08/19 11:19:31;;;;;;;5.72;4.07;;;;;;;-144.30;31.26;82475.41;5107854;28;20199;-55
2023/08/19 11:22:03;;;;;;;8.88;5.45;;;;;;;-144.30;31.32;82447.59;5108040;28;20299;-46
2023/08/19 11:24:36;;;;;;;5.20;4.90;;;;;;;-144.30;31.40;82453.56;5108826;28;20198;-56
2023/08/19 11:27:06;;;;;;;5.63;5.03;;;;;;;-144.30;31.73;82536.97;5106810;28;20194;-55
2023/08/19 11:29:45;;;;;;;4.70;4.40;;;;;;;-144.30;31.68;82538.97;5108923;28;20194;-44
2023/08/19 11:32:35;;;;;;;4.38;4.07;;;;;;;-144.30;31.78;82499.22;5108419;28;20217;-44
2023/08/19 11:35:15;;;;;;;5.18;4.68;;;;;;;-144.30;31.69;82515.13;5106837;28;20223;-56
2023/08/19 11:37:58;;;;;;;4.30;4.00;;;;;;;-144.30;31.51;82447.59;5103685;28;20194;-55
2023/08/19 11:40:38;;;;;;;4.35;4.05;;;;;;;-144.30;31.52;82439.66;5108440;28;20195;-44
2023/08/19 11:43:11;;;;;;;4.70;4.10;;;;;;;-144.30;31.24;82431.69;5107622;28;20710;-55
2023/08/19 11:45:47;;;;;;;4.43;4.03;;;;;;;-144.30;31.59;82465.47;5101612;28;20190;-45
2023/08/19 11:48:16;;;;;;;4.70;4.38;;;;;;;-144.30;31.76;82376.09;5106258;28;20190;-56
2023/08/19 11:50:52;;;;;;;5.45;5.05;;;;;;;-144.30;31.31;82441.63;5108909;28;20254;-56
2023/08/19 11:53:30;;;;;;;6.70;4.28;;;;;;;-144.30;31.13;82435.66;5106934;28;20201;-56
2023/08/19 11:56:05;;;;;;;6.28;4.18;;;;;;;-144.30;31.18;82451.56;5109228;28;20205;-55
2023/08/19 11:59:05;;;;;;;4.43;4.13;;;;;;;-144.30;31.03;82447.59;5109266;28;20285;-55
2023/08/19 12:01:55;;;;;;;4.40;4.03;;;;;;;-144.30;31.36;82419.78;5107883;28;20578;-44
2023/08/19 12:04:32;;;;;;;4.20;3.90;;;;;;;-144.30;31.20;82421.78;5109138;28;20252;-54
2023/08/19 12:10:20;;;;;;;7.03;4.57;;;;;;;-144.30;31.34;82507.19;5088016;28;20234;-56
2023/08/19 12:13:16;;;;;;;4.43;4.20;;;;;;;-144.30;31.27;82483.34;5088786;28;20195;-46
2023/08/19 12:16:10;;;;;;;4.40;4.10;;;;;;;-144.30;31.67;82542.94;5087847;28;20252;-54
2023/08/19 12:18:57;;;;;;;6.75;4.20;;;;;;;-144.30;31.60;82527.03;5086985;28;20191;-55
2023/08/19 12:21:34;;;;;;;4.72;4.15;;;;;;;-144.30;32.00;82507.19;5088033;28;20682;-56
2023/08/19 12:24:19;;;;;;;4.90;4.45;;;;;;;-144.30;31.90;82546.91;5097778;28;20201;-46
2023/08/19 12:27:05;;;;;;;7.32;4.65;;;;;;;-144.30;31.62;82527.03;5106842;28;20199;-45
2023/08/19 12:29:43;;;;;;;6.35;4.75;;;;;;;-144.30;31.37;82423.75;5106478;28;20214;-44
2023/08/19 12:32:12;;;;;;;4.85;4.30;;;;;;;-144.30;31.37;82523.06;5106843;28;20195;-44
2023/08/19 12:34:52;;;;;;;5.53;4.60;;;;;;;-144.30;31.35;82519.09;5108580;28;20202;-44
2023/08/19 12:37:29;;;;;;;4.63;4.32;;;;;;;-144.30;31.15;82672.03;5107184;28;20691;-45
2023/08/19 12:40:05;;;;;;;4.63;4.32;;;;;;;-144.30;31.02;82445.59;5105685;28;20197;-56
2023/08/19 12:42:49;;;;;;;5.57;4.30;;;;;;;-144.30;31.06;82431.69;5108465;28;20187;-56
2023/08/19 12:45:24;;;;;;;5.57;4.30;;;;;;;-144.30;31.01;82384.03;5105621;28;20587;-56
2023/08/19 12:48:00;;;;;;;4.45;4.03;;;;;;;-144.30;30.92;82344.31;5108444;28;20651;-56
2023/08/19 12:50:31;;;;;;;4.82;4.40;;;;;;;-144.30;30.89;82340.34;5107011;28;20254;-45
2023/08/19 12:53:13;;;;;;;4.82;4.30;;;;;;;-144.30;30.87;82324.44;5103248;28;20639;-45
2023/08/19 12:56:06;;;;;;;5.05;4.10;;;;;;;-144.30;30.81;82310.53;5106860;28;20194;-47
2023/08/19 12:58:37;;;;;;;4.68;4.22;;;;;;;-144.30;31.13;82161.59;5111699;28;20255;-55
2023/08/19 13:01:06;;;;;;;5.63;5.10;;;;;;;-144.30;31.15;82274.78;5111562;28;20194;-55
2023/08/19 13:03:48;;;;;;;23.45;6.65;;;;;;;-144.30;31.08;82229.09;5112301;28;20205;-56
2023/08/19 13:06:37;;;;;;;5.15;4.88;;;;;;;-144.30;30.98;82209.25;5108835;28;20229;-57
2023/08/19 13:09:26;;;;;;;5.55;5.10;;;;;;;-144.30;30.10;82197.34;5089344;28;20196;-54
2023/08/19 13:12:14;;;;;;;5.75;5.35;;;;;;;-144.30;30.14;82197.34;5049519;28;20310;-57
2023/08/19 13:15:07;;;;;;;6.25;5.70;;;;;;;-144.30;30.49;82205.28;5050571;28;20204;-56
2023/08/19 13:17:37;;;;;;;9.70;5.47;;;;;;;-144.30;30.76;82256.91;5058629;28;20254;-56
2023/08/19 13:23:02;;;;;;;5.65;5.18;;;;;;;-144.30;31.04;82239.03;5070057;28;20262;-56
2023/08/19 13:25:50;;;;;;;6.15;5.03;;;;;;;-144.30;31.61;82223.16;5057074;28;20254;-45
2023/08/19 13:31:59;;;;;;;5.03;4.50;;;;;;;-144.30;31.71;82233.09;5050049;28;20730;-55
2023/08/19 13:34:43;;;;;;;5.75;5.03;;;;;;;-144.30;31.76;82209.25;5050466;28;20258;-56
2023/08/19 13:37:28;;;;;;;5.53;4.78;;;;;;;-144.30;31.84;82185.41;5051445;28;20287;-45
2023/08/19 13:40:15;;;;;;;5.63;5.22;;;;;;;-144.30;31.58;82221.16;5051600;28;20204;-45
2023/08/19 13:43:24;;;;;;;5.20;4.80;;;;;;;-144.30;31.54;82133.78;5050601;28;20211;-45
2023/08/19 13:46:09;;;;;;;4.75;4.38;;;;;;;-144.30;31.35;82177.47;5049511;28;20200;-45
2023/08/19 13:52:26;;;;;;;;;;;;;;;;;;;;;
2023/08/19 13:55:34;;;;;;;6.53;4.40;;;;;;;-144.30;31.77;82157.63;5047493;28;20193;-45
2023/08/19 13:58:06;;;;;;;5.13;4.72;;;;;;;-144.30;31.41;82183.44;5050189;28;20676;-44
2023/08/19 14:01:25;;;;;;;4.75;4.20;;;;;;;-144.30;31.47;82260.88;5050707;28;20695;-45
2023/08/19 14:04:32;;;;;;;5.40;4.45;;;;;;;-144.30;31.47;82243.00;5048525;28;20584;-43
2023/08/19 14:07:41;;;;;;;5.25;4.85;;;;;;;-144.30;31.61;82193.38;5051214;28;20669;-45
2023/08/19 14:13:24;;;;;;;8.68;4.38;;;;;;;-144.30;31.16;82211.25;5089411;28;20195;-45
2023/08/19 14:29:04;;;;;;;6.53;4.32;;;;;;;-144.30;30.69;82252.94;5082955;28;20738;-55
2023/08/19 14:32:07;;;;;;;7.13;4.40;;;;;;;-144.30;30.93;82280.75;5089643;28;20223;-44
2023/08/19 14:34:53;;;;;;;5.00;4.30;;;;;;;-144.30;31.23;82306.56;5090127;28;20682;-45
2023/08/19 14:38:06;;;;;;;4.55;4.30;;;;;;;-144.30;31.40;82332.38;5090305;28;20285;-45
2023/08/19 14:40:36;;;;;;;5.75;4.35;;;;;;;-144.30;31.37;82334.38;5090167;28;20610;-45
2023/08/19 14:43:07;;;;;;;4.75;4.45;;;;;;;-144.30;31.32;82399.91;5089430;28;20697;-44
2023/08/19 14:45:37;;;;;;;4.65;4.10;;;;;;;-144.30;31.39;82296.63;5090445;28;20585;-44
2023/08/19 14:48:10;;;;;;;4.65;4.22;;;;;;;-144.30;31.35;82370.13;5090366;28;20300;-55
2023/08/19 14:50:53;;;;;;;5.90;4.47;;;;;;;-144.30;31.49;82336.38;5090067;28;20223;-55
2023/08/19 14:53:28;;;;;;;4.10;3.80;;;;;;;-144.30;30.73;82348.28;5089942;28;20292;-45
2023/08/19 14:56:16;;;;;;;6.70;4.30;;;;;;;-144.30;30.13;82326.44;5090114;28;20199;-55
2023/08/19 14:58:52;;;;;;;4.22;3.83;;;;;;;-144.30;29.92;82288.69;5089941;28;20676;-45
2023/08/19 15:01:25;;;;;;;6.18;3.50;;;;;;;-144.30;29.98;82292.66;5089590;28;20671;-44
2023/08/19 15:04:07;;;;;;;3.33;3.13;;;;;;;-144.30;29.75;82336.38;5109981;28;20653;-45
2023/08/19 15:06:39;;;;;;;3.72;3.47;;;;;;;-144.30;29.65;82348.28;5108843;28;20202;-46
2023/08/19 15:12:37;;;;;;;5.93;3.97;;;;;;;-144.30;29.89;82360.19;5055480;28;20282;-44
2023/08/19 15:15:30;;;;;;;4.13;3.50;;;;;;;-144.30;30.11;82362.19;5049780;28;20246;-44
2023/08/19 15:18:28;;;;;;;4.32;3.55;;;;;;;-144.30;29.97;82348.28;5048001;28;20637;-55
2023/08/19 15:21:25;;;;;;;6.00;3.67;;;;;;;-144.30;30.14;82380.06;5049299;28;20284;-56
2023/08/19 15:24:09;;;;;;;3.53;3.25;;;;;;;-144.30;30.27;82364.16;5048951;28;20207;-54
2023/08/19 15:27:07;;;;;;;3.80;3.60;;;;;;;-144.30;30.15;82346.28;5049430;28;20200;-44
2023/08/19 15:30:05;;;;;;;4.35;3.95;;;;;;;-144.30;30.39;82399.91;5049379;28;20204;-55
2023/08/19 15:32:55;;;;;;;3.80;3.60;;;;;;;-144.30;30.29;82419.78;5048897;28;20299;-44
2023/08/19 15:35:31;;;;;;;3.42;3.22;;;;;;;-144.30;30.00;82405.88;5066387;28;20235;-44
2023/08/19 15:38:02;;;;;;;5.78;3.42;;;;;;;-144.30;29.90;82356.22;5047556;28;20764;-45
2023/08/19 15:40:37;;;;;;;3.40;3.20;;;;;;;-144.30;30.14;82391.97;5049509;28;20220;-44
2023/08/19 15:43:37;;;;;;;3.38;3.08;;;;;;;-144.30;30.25;82419.78;5071674;28;20299;-44
2023/08/19 15:49:05;;;;;;;3.72;3.42;;;;;;;-144.30;30.09;82467.44;5089016;28;20226;-45
2023/08/19 15:51:42;;;;;;;3.47;3.25;;;;;;;-144.30;29.73;82423.75;5088979;28;20273;-44
2023/08/19 15:57:16;;;;;;;7.78;7.07;;;;;;;-144.30;30.97;82481.34;5077282;28;20207;-45
2023/08/19 16:00:07;;;;;;;9.23;7.15;;;;;;;-144.30;30.86;82467.44;5077283;28;20656;-45
2023/08/19 16:02:47;;;;;;;7.90;7.30;;;;;;;-144.30;31.22;82533.00;5071391;28;20292;-45
2023/08/19 16:05:18;;;;;;;13.18;8.55;;;;;;;-144.30;31.35;82503.22;5060693;28;20277;-44
2023/08/19 16:07:54;;;;;;;8.70;7.80;;;;;;;-144.30;31.64;82527.03;5074699;28;20238;-44
2023/08/19 16:10:39;;;;;;;8.95;7.60;;;;;;;-144.30;31.61;82566.78;5090706;28;20222;-55
2023/08/19 16:13:15;;;;;;;9.98;7.18;;;;;;;-144.30;32.05;82540.94;5103636;28;20190;-44
2023/08/19 16:15:50;;;;;;;11.27;7.20;;;;;;;-144.30;32.04;82582.66;5107625;28;20722;-55
2023/08/19 16:18:38;;;;;;;15.90;6.57;;;;;;;-144.30;32.15;82594.56;5104837;28;20255;-55
2023/08/19 16:21:14;;;;;;;7.53;6.80;;;;;;;-144.30;32.53;82600.53;5107278;28;20590;-54